sensor_id;sensor_type;location;lat;lon;timestamp;pressure;altitude;pressure_sealevel;temperature
49785;BMP280;35679;38.732;-121.358;2023-04-25T00:01:24;100777.53;;;23.77
49785;BMP280;35679;38.732;-121.358;2023-04-25T00:04:13;100771.91;;;23.78
49785;BMP280;35679;38.732;-121.358;2023-04-25T00:07:03;100767.31;;;23.78
49785;BMP280;35679;38.732;-121.358;2023-04-25T00:09:53;100767.63;;;23.82
49785;BMP280;35679;38.732;-121.358;2023-04-25T00:12:42;100772.75;;;23.83
49785;BMP280;35679;38.732;-121.358;2023-04-25T00:15:32;100775.22;;;23.85
49785;BMP280;35679;38.732;-121.358;2023-04-25T00:18:22;100774.13;;;23.86
49785;BMP280;35679;38.732;-121.358;2023-04-25T00:21:11;100766.41;;;23.94
49785;BMP280;35679;38.732;-121.358;2023-04-25T00:24:01;100769.13;;;23.94
49785;BMP280;35679;38.732;-121.358;2023-04-25T00:26:50;100767.00;;;23.96
49785;BMP280;35679;38.732;-121.358;2023-04-25T00:29:39;100772.38;;;23.96
49785;BMP280;35679;38.732;-121.358;2023-04-25T00:32:29;100765.94;;;23.97
49785;BMP280;35679;38.732;-121.358;2023-04-25T00:35:18;100764.84;;;23.98
49785;BMP280;35679;38.732;-121.358;2023-04-25T00:38:08;100770.22;;;23.98
49785;BMP280;35679;38.732;-121.358;2023-04-25T00:40:57;100769.19;;;23.99
49785;BMP280;35679;38.732;-121.358;2023-04-25T00:43:48;100770.00;;;24.00
49785;BMP280;35679;38.732;-121.358;2023-04-25T00:46:39;100771.38;;;24.02
49785;BMP280;35679;38.732;-121.358;2023-04-25T00:49:29;100764.09;;;24.03
49785;BMP280;35679;38.732;-121.358;2023-04-25T00:52:18;100763.84;;;24.04
49785;BMP280;35679;38.732;-121.358;2023-04-25T00:55:09;100769.22;;;24.04
49785;BMP280;35679;38.732;-121.358;2023-04-25T00:57:58;100772.50;;;24.06
49785;BMP280;35679;38.732;-121.358;2023-04-25T01:00:49;100766.59;;;24.09
49785;BMP280;35679;38.732;-121.358;2023-04-25T01:03:40;100765.78;;;24.09
49785;BMP280;35679;38.732;-121.358;2023-04-25T01:06:29;100754.19;;;24.08
49785;BMP280;35679;38.732;-121.358;2023-04-25T01:09:20;100754.75;;;24.10
49785;BMP280;35679;38.732;-121.358;2023-04-25T01:12:10;100754.25;;;24.13
49785;BMP280;35679;38.732;-121.358;2023-04-25T01:14:59;100748.28;;;24.11
49785;BMP280;35679;38.732;-121.358;2023-04-25T01:17:49;100759.88;;;24.12
49785;BMP280;35679;38.732;-121.358;2023-04-25T01:20:39;100769.59;;;24.13
49785;BMP280;35679;38.732;-121.358;2023-04-25T01:23:31;100765.25;;;24.12
49785;BMP280;35679;38.732;-121.358;2023-04-25T01:26:22;100768.84;;;24.17
49785;BMP280;35679;38.732;-121.358;2023-04-25T01:29:12;100758.06;;;24.17
49785;BMP280;35679;38.732;-121.358;2023-04-25T01:32:01;100761.88;;;24.21
49785;BMP280;35679;38.732;-121.358;2023-04-25T01:34:51;100752.41;;;24.19
49785;BMP280;35679;38.732;-121.358;2023-04-25T01:37:41;100755.38;;;24.17
49785;BMP280;35679;38.732;-121.358;2023-04-25T01:40:33;100762.09;;;24.15
49785;BMP280;35679;38.732;-121.358;2023-04-25T01:43:23;100759.66;;;24.13
49785;BMP280;35679;38.732;-121.358;2023-04-25T01:46:13;100762.34;;;24.13
49785;BMP280;35679;38.732;-121.358;2023-04-25T01:49:03;100759.66;;;24.13
49785;BMP280;35679;38.732;-121.358;2023-04-25T01:51:53;100758.81;;;24.13
49785;BMP280;35679;38.732;-121.358;2023-04-25T01:54:42;100761.50;;;24.13
49785;BMP280;35679;38.732;-121.358;2023-04-25T01:57:34;100752.63;;;24.12
49785;BMP280;35679;38.732;-121.358;2023-04-25T02:00:24;100754.47;;;24.12
49785;BMP280;35679;38.732;-121.358;2023-04-25T02:03:14;100748.28;;;24.11
49785;BMP280;35679;38.732;-121.358;2023-04-25T02:06:04;100759.06;;;24.11
49785;BMP280;35679;38.732;-121.358;2023-04-25T02:08:57;100760.13;;;24.10
49785;BMP280;35679;38.732;-121.358;2023-04-25T02:11:46;100757.44;;;24.10
49785;BMP280;35679;38.732;-121.358;2023-04-25T02:14:48;100767.16;;;24.11
49785;BMP280;35679;38.732;-121.358;2023-04-25T02:17:46;100765.53;;;24.10
49785;BMP280;35679;38.732;-121.358;2023-04-25T02:20:35;100757.38;;;24.05
49785;BMP280;35679;38.732;-121.358;2023-04-25T02:23:25;100761.78;;;24.11
49785;BMP280;35679;38.732;-121.358;2023-04-25T02:26:14;100764.97;;;24.08
49785;BMP280;35679;38.732;-121.358;2023-04-25T02:29:04;100766.31;;;24.06
49785;BMP280;35679;38.732;-121.358;2023-04-25T02:31:53;100766.53;;;24.04
49785;BMP280;35679;38.732;-121.358;2023-04-25T02:34:43;100767.63;;;24.03
49785;BMP280;35679;38.732;-121.358;2023-04-25T02:37:34;100765.41;;;24.00
49785;BMP280;35679;38.732;-121.358;2023-04-25T02:40:23;100764.84;;;23.98
49785;BMP280;35679;38.732;-121.358;2023-04-25T02:43:14;100766.41;;;23.94
49785;BMP280;35679;38.732;-121.358;2023-04-25T02:46:04;100765.38;;;23.95
49785;BMP280;35679;38.732;-121.358;2023-04-25T02:48:54;100765.41;;;24.00
49785;BMP280;35679;38.732;-121.358;2023-04-25T02:51:43;100765.94;;;23.97
49785;BMP280;35679;38.732;-121.358;2023-04-25T02:54:32;100774.25;;;23.96
49785;BMP280;35679;38.732;-121.358;2023-04-25T02:57:23;100780.16;;;23.93
49785;BMP280;35679;38.732;-121.358;2023-04-25T03:00:12;100781.22;;;23.92
49785;BMP280;35679;38.732;-121.358;2023-04-25T03:03:03;100779.84;;;23.89
49785;BMP280;35679;38.732;-121.358;2023-04-25T03:05:52;100790.38;;;23.91
49785;BMP280;35679;38.732;-121.358;2023-04-25T03:08:46;100789.81;;;23.89
49785;BMP280;35679;38.732;-121.358;2023-04-25T03:11:38;100794.63;;;23.87
49785;BMP280;35679;38.732;-121.358;2023-04-25T03:14:27;100804.88;;;23.85
49785;BMP280;35679;38.732;-121.358;2023-04-25T03:17:17;100804.03;;;23.84
49785;BMP280;35679;38.732;-121.358;2023-04-25T03:20:06;100797.28;;;23.82
49785;BMP280;35679;38.732;-121.358;2023-04-25T03:22:57;100797.53;;;23.80
49785;BMP280;35679;38.732;-121.358;2023-04-25T03:25:48;100801.22;;;23.75
49785;BMP280;35679;38.732;-121.358;2023-04-25T03:28:38;100796.34;;;23.72
49785;BMP280;35679;38.732;-121.358;2023-04-25T03:31:28;100801.13;;;23.70
49785;BMP280;35679;38.732;-121.358;2023-04-25T03:34:19;100811.31;;;23.68
49785;BMP280;35679;38.732;-121.358;2023-04-25T03:37:10;100819.66;;;23.66
49785;BMP280;35679;38.732;-121.358;2023-04-25T03:40:01;100818.28;;;23.64
49785;BMP280;35679;38.732;-121.358;2023-04-25T03:43:10;100821.81;;;23.64
49785;BMP280;35679;38.732;-121.358;2023-04-25T03:46:06;100833.91;;;23.62
49785;BMP280;35679;38.732;-121.358;2023-04-25T03:48:55;100821.47;;;23.61
49785;BMP280;35679;38.732;-121.358;2023-04-25T03:51:53;100833.56;;;23.58
49785;BMP280;35679;38.732;-121.358;2023-04-25T03:54:42;100831.13;;;23.57
49785;BMP280;35679;38.732;-121.358;2023-04-25T03:57:38;100844.81;;;23.55
49785;BMP280;35679;38.732;-121.358;2023-04-25T04:00:28;100844.50;;;23.52
49785;BMP280;35679;38.732;-121.358;2023-04-25T04:03:18;100845.59;;;23.51
49785;BMP280;35679;38.732;-121.358;2023-04-25T04:06:07;100843.38;;;23.48
49785;BMP280;35679;38.732;-121.358;2023-04-25T04:09:01;100844.44;;;23.47
49785;BMP280;35679;38.732;-121.358;2023-04-25T04:11:54;100853.03;;;23.44
49785;BMP280;35679;38.732;-121.358;2023-04-25T04:14:45;100848.69;;;23.43
49785;BMP280;35679;38.732;-121.358;2023-04-25T04:17:34;100846.31;;;23.46
49785;BMP280;35679;38.732;-121.358;2023-04-25T04:20:24;100851.72;;;23.46
49785;BMP280;35679;38.732;-121.358;2023-04-25T04:23:14;100859.13;;;23.39
49785;BMP280;35679;38.732;-121.358;2023-04-25T04:26:03;100851.06;;;23.39
49785;BMP280;35679;38.732;-121.358;2023-04-25T04:29:04;100872.31;;;23.36
49785;BMP280;35679;38.732;-121.358;2023-04-25T04:32:05;100869.03;;;23.34
49785;BMP280;35679;38.732;-121.358;2023-04-25T04:34:55;100877.09;;;23.34
49785;BMP280;35679;38.732;-121.358;2023-04-25T04:37:46;100875.13;;;23.29
49785;BMP280;35679;38.732;-121.358;2023-04-25T04:40:38;100876.44;;;23.27
49785;BMP280;35679;38.732;-121.358;2023-04-25T04:43:33;100883.13;;;23.24
49785;BMP280;35679;38.732;-121.358;2023-04-25T04:46:41;100887.13;;;23.22
49785;BMP280;35679;38.732;-121.358;2023-04-25T04:49:53;100888.84;;;23.28
49785;BMP280;35679;38.732;-121.358;2023-04-25T04:52:52;100893.91;;;23.24
49785;BMP280;35679;38.732;-121.358;2023-04-25T04:56:04;100892.50;;;23.22
49785;BMP280;35679;38.732;-121.358;2023-04-25T04:59:32;100900.50;;;23.17
49785;BMP280;35679;38.732;-121.358;2023-04-25T05:02:41;100901.00;;;23.14
49785;BMP280;35679;38.732;-121.358;2023-04-25T05:05:50;100897.50;;;23.13
49785;BMP280;35679;38.732;-121.358;2023-04-25T05:08:39;100905.25;;;23.10
49785;BMP280;35679;38.732;-121.358;2023-04-25T05:11:49;100906.53;;;23.08
49785;BMP280;35679;38.732;-121.358;2023-04-25T05:14:56;100900.59;;;23.06
49785;BMP280;35679;38.732;-121.358;2023-04-25T05:17:57;100907.53;;;23.02
49785;BMP280;35679;38.732;-121.358;2023-04-25T05:21:03;100904.22;;;23.00
49785;BMP280;35679;38.732;-121.358;2023-04-25T05:24:07;100912.53;;;22.98
49785;BMP280;35679;38.732;-121.358;2023-04-25T05:27:17;100922.72;;;22.96
49785;BMP280;35679;38.732;-121.358;2023-04-25T05:30:22;100916.78;;;22.94
49785;BMP280;35679;38.732;-121.358;2023-04-25T05:33:30;100914.91;;;22.95
49785;BMP280;35679;38.732;-121.358;2023-04-25T05:36:21;100919.94;;;22.91
49785;BMP280;35679;38.732;-121.358;2023-04-25T05:39:11;100922.88;;;22.90
49785;BMP280;35679;38.732;-121.358;2023-04-25T05:42:23;100919.84;;;22.86
49785;BMP280;35679;38.732;-121.358;2023-04-25T05:45:27;100914.09;;;22.94
49785;BMP280;35679;38.732;-121.358;2023-04-25T05:48:43;100915.16;;;22.93
49785;BMP280;35679;38.732;-121.358;2023-04-25T05:51:56;100913.50;;;22.92
49785;BMP280;35679;38.732;-121.358;2023-04-25T05:54:56;100917.88;;;22.82
49785;BMP280;35679;38.732;-121.358;2023-04-25T05:57:45;100915.09;;;22.77
49785;BMP280;35679;38.732;-121.358;2023-04-25T06:00:37;100918.88;;;22.76
49785;BMP280;35679;38.732;-121.358;2023-04-25T06:03:27;100907.75;;;22.72
49785;BMP280;35679;38.732;-121.358;2023-04-25T06:06:18;100908.56;;;22.73
49785;BMP280;35679;38.732;-121.358;2023-04-25T06:09:07;100908.00;;;22.71
49785;BMP280;35679;38.732;-121.358;2023-04-25T06:11:58;100906.38;;;22.70
49785;BMP280;35679;38.732;-121.358;2023-04-25T06:14:47;100903.94;;;22.68
49785;BMP280;35679;38.732;-121.358;2023-04-25T06:17:36;100910.38;;;22.67
49785;BMP280;35679;38.732;-121.358;2023-04-25T06:20:26;100908.13;;;22.64
49785;BMP280;35679;38.732;-121.358;2023-04-25T06:23:18;100914.56;;;22.63
49785;BMP280;35679;38.732;-121.358;2023-04-25T06:26:20;100911.31;;;22.61
49785;BMP280;35679;38.732;-121.358;2023-04-25T06:29:09;100918.00;;;22.59
49785;BMP280;35679;38.732;-121.358;2023-04-25T06:31:59;100918.16;;;22.52
49785;BMP280;35679;38.732;-121.358;2023-04-25T06:34:49;100919.19;;;22.51
49785;BMP280;35679;38.732;-121.358;2023-04-25T06:37:39;100925.38;;;22.52
49785;BMP280;35679;38.732;-121.358;2023-04-25T06:40:29;100920.00;;;22.52
49785;BMP280;35679;38.732;-121.358;2023-04-25T06:43:18;100918.03;;;22.47
49785;BMP280;35679;38.732;-121.358;2023-04-25T06:46:22;100924.47;;;22.46
49785;BMP280;35679;38.732;-121.358;2023-04-25T06:49:12;100924.94;;;22.43
49785;BMP280;35679;38.732;-121.358;2023-04-25T06:52:01;100922.50;;;22.42
49785;BMP280;35679;38.732;-121.358;2023-04-25T06:54:51;100921.59;;;22.37
49785;BMP280;35679;38.732;-121.358;2023-04-25T06:58:09;100921.00;;;22.35
49785;BMP280;35679;38.732;-121.358;2023-04-25T07:01:20;100927.19;;;22.35
49785;BMP280;35679;38.732;-121.358;2023-04-25T07:04:10;100938.53;;;22.26
49785;BMP280;35679;38.732;-121.358;2023-04-25T07:07:05;100919.38;;;22.22
49785;BMP280;35679;38.732;-121.358;2023-04-25T07:10:04;100928.72;;;22.20
49785;BMP280;35679;38.732;-121.358;2023-04-25T07:12:54;100931.88;;;22.17
49785;BMP280;35679;38.732;-121.358;2023-04-25T07:15:44;100941.00;;;22.16
49785;BMP280;35679;38.732;-121.358;2023-04-25T07:18:34;100932.59;;;22.12
49785;BMP280;35679;38.732;-121.358;2023-04-25T07:21:23;100948.13;;;22.10
49785;BMP280;35679;38.732;-121.358;2023-04-25T07:24:13;100937.63;;;22.09
49785;BMP280;35679;38.732;-121.358;2023-04-25T07:27:06;100942.63;;;22.05
49785;BMP280;35679;38.732;-121.358;2023-04-25T07:30:18;100942.28;;;22.02
49785;BMP280;35679;38.732;-121.358;2023-04-25T07:33:08;100939.84;;;22.00
49785;BMP280;35679;38.732;-121.358;2023-04-25T07:35:57;100945.47;;;21.99
49785;BMP280;35679;38.732;-121.358;2023-04-25T07:38:47;100946.50;;;21.98
49785;BMP280;35679;38.732;-121.358;2023-04-25T07:41:37;100944.06;;;21.96
49785;BMP280;35679;38.732;-121.358;2023-04-25T07:44:30;100940.78;;;21.94
49785;BMP280;35679;38.732;-121.358;2023-04-25T07:47:19;100946.41;;;21.93
49785;BMP280;35679;38.732;-121.358;2023-04-25T07:50:09;100948.50;;;21.91
49785;BMP280;35679;38.732;-121.358;2023-04-25T07:52:59;100952.25;;;21.90
49785;BMP280;35679;38.732;-121.358;2023-04-25T07:55:55;100947.34;;;21.87
49785;BMP280;35679;38.732;-121.358;2023-04-25T07:58:45;100947.81;;;21.84
49785;BMP280;35679;38.732;-121.358;2023-04-25T08:01:36;100942.69;;;21.82
49785;BMP280;35679;38.732;-121.358;2023-04-25T08:04:27;100947.69;;;21.79
49785;BMP280;35679;38.732;-121.358;2023-04-25T08:07:25;100955.75;;;21.79
49785;BMP280;35679;38.732;-121.358;2023-04-25T08:10:20;100950.63;;;21.77
49785;BMP280;35679;38.732;-121.358;2023-04-25T08:13:11;100952.13;;;21.74
49785;BMP280;35679;38.732;-121.358;2023-04-25T08:16:01;100948.88;;;21.72
49785;BMP280;35679;38.732;-121.358;2023-04-25T08:18:50;100954.44;;;21.70
49785;BMP280;35679;38.732;-121.358;2023-04-25T08:21:40;100945.81;;;21.68
49785;BMP280;35679;38.732;-121.358;2023-04-25T08:24:34;100958.66;;;21.66
49785;BMP280;35679;38.732;-121.358;2023-04-25T08:27:28;100961.81;;;21.63
49785;BMP280;35679;38.732;-121.358;2023-04-25T08:30:18;100958.53;;;21.61
49785;BMP280;35679;38.732;-121.358;2023-04-25T08:33:07;100964.16;;;21.60
49785;BMP280;35679;38.732;-121.358;2023-04-25T08:36:17;100965.44;;;21.57
49785;BMP280;35679;38.732;-121.358;2023-04-25T08:39:26;100966.94;;;21.53
49785;BMP280;35679;38.732;-121.358;2023-04-25T08:42:45;100962.84;;;21.51
49785;BMP280;35679;38.732;-121.358;2023-04-25T08:45:36;100966.56;;;21.50
49785;BMP280;35679;38.732;-121.358;2023-04-25T08:48:28;100962.84;;;21.51
49785;BMP280;35679;38.732;-121.358;2023-04-25T08:51:22;100962.22;;;21.49
49785;BMP280;35679;38.732;-121.358;2023-04-25T08:54:14;100957.34;;;21.46
49785;BMP280;35679;38.732;-121.358;2023-04-25T08:57:23;100958.94;;;21.47
49785;BMP280;35679;38.732;-121.358;2023-04-25T09:00:13;100965.59;;;21.44
49785;BMP280;35679;38.732;-121.358;2023-04-25T09:03:04;100954.53;;;21.41
49785;BMP280;35679;38.732;-121.358;2023-04-25T09:05:55;100953.94;;;21.39
49785;BMP280;35679;38.732;-121.358;2023-04-25T09:08:44;100952.06;;;21.39
49785;BMP280;35679;38.732;-121.358;2023-04-25T09:11:35;100951.72;;;21.36
49785;BMP280;35679;38.732;-121.358;2023-04-25T09:14:29;100959.97;;;21.34
49785;BMP280;35679;38.732;-121.358;2023-04-25T09:17:30;100944.34;;;21.31
49785;BMP280;35679;38.732;-121.358;2023-04-25T09:20:20;100950.75;;;21.30
49785;BMP280;35679;38.732;-121.358;2023-04-25T09:23:10;100941.53;;;21.26
49785;BMP280;35679;38.732;-121.358;2023-04-25T09:25:59;100935.38;;;21.26
49785;BMP280;35679;38.732;-121.358;2023-04-25T09:28:49;100935.44;;;21.19
49785;BMP280;35679;38.732;-121.358;2023-04-25T09:32:11;100929.72;;;21.16
49785;BMP280;35679;38.732;-121.358;2023-04-25T09:35:02;100935.94;;;21.16
49785;BMP280;35679;38.732;-121.358;2023-04-25T09:37:54;100919.22;;;21.14
49785;BMP280;35679;38.732;-121.358;2023-04-25T09:41:12;100923.78;;;21.14
49785;BMP280;35679;38.732;-121.358;2023-04-25T09:44:04;100915.59;;;21.09
49785;BMP280;35679;38.732;-121.358;2023-04-25T09:46:57;100915.00;;;21.07
49785;BMP280;35679;38.732;-121.358;2023-04-25T09:49:50;100910.91;;;21.05
49785;BMP280;35679;38.732;-121.358;2023-04-25T09:52:41;100921.66;;;21.05
49785;BMP280;35679;38.732;-121.358;2023-04-25T09:55:36;100911.41;;;21.02
49785;BMP280;35679;38.732;-121.358;2023-04-25T09:58:29;100919.66;;;21.00
49785;BMP280;35679;38.732;-121.358;2023-04-25T10:01:21;100906.47;;;20.99
49785;BMP280;35679;38.732;-121.358;2023-04-25T10:04:27;100913.94;;;20.97
49785;BMP280;35679;38.732;-121.358;2023-04-25T10:07:29;100916.84;;;20.95
49785;BMP280;35679;38.732;-121.358;2023-04-25T10:10:20;100913.34;;;20.95
49785;BMP280;35679;38.732;-121.358;2023-04-25T10:13:16;100914.84;;;20.91
49785;BMP280;35679;38.732;-121.358;2023-04-25T10:16:05;100912.41;;;20.89
49785;BMP280;35679;38.732;-121.358;2023-04-25T10:18:55;100898.41;;;20.87
49785;BMP280;35679;38.732;-121.358;2023-04-25T10:22:00;100903.16;;;20.85
49785;BMP280;35679;38.732;-121.358;2023-04-25T10:24:51;100909.00;;;20.82
49785;BMP280;35679;38.732;-121.358;2023-04-25T10:27:41;100905.50;;;20.82
49785;BMP280;35679;38.732;-121.358;2023-04-25T10:30:31;100908.19;;;20.82
49785;BMP280;35679;38.732;-121.358;2023-04-25T10:33:30;100910.50;;;20.78
49785;BMP280;35679;38.732;-121.358;2023-04-25T10:36:22;100907.00;;;20.78
49785;BMP280;35679;38.732;-121.358;2023-04-25T10:39:12;100902.91;;;20.75
49785;BMP280;35679;38.732;-121.358;2023-04-25T10:42:02;100914.88;;;20.73
49785;BMP280;35679;38.732;-121.358;2023-04-25T10:45:02;100920.69;;;20.70
49785;BMP280;35679;38.732;-121.358;2023-04-25T10:47:54;100925.94;;;20.65
49785;BMP280;35679;38.732;-121.358;2023-04-25T10:50:44;100920.81;;;20.63
49785;BMP280;35679;38.732;-121.358;2023-04-25T10:53:34;100925.31;;;20.63
49785;BMP280;35679;38.732;-121.358;2023-04-25T10:56:26;100922.06;;;20.61
49785;BMP280;35679;38.732;-121.358;2023-04-25T10:59:17;100928.47;;;20.60
49785;BMP280;35679;38.732;-121.358;2023-04-25T11:02:11;100928.72;;;20.58
49785;BMP280;35679;38.732;-121.358;2023-04-25T11:05:02;100927.31;;;20.56
49785;BMP280;35679;38.732;-121.358;2023-04-25T11:07:52;100923.53;;;20.57
49785;BMP280;35679;38.732;-121.358;2023-04-25T11:10:55;100925.41;;;20.56
49785;BMP280;35679;38.732;-121.358;2023-04-25T11:13:47;100922.38;;;20.53
49785;BMP280;35679;38.732;-121.358;2023-04-25T11:16:38;100939.72;;;20.50
49785;BMP280;35679;38.732;-121.358;2023-04-25T11:19:28;100928.19;;;20.50
49785;BMP280;35679;38.732;-121.358;2023-04-25T11:22:18;100924.91;;;20.48
49785;BMP280;35679;38.732;-121.358;2023-04-25T11:25:09;100934.81;;;20.47
49785;BMP280;35679;38.732;-121.358;2023-04-25T11:27:59;100930.75;;;20.45
49785;BMP280;35679;38.732;-121.358;2023-04-25T11:30:49;100925.81;;;20.42
49785;BMP280;35679;38.732;-121.358;2023-04-25T11:33:39;100927.69;;;20.42
49785;BMP280;35679;38.732;-121.358;2023-04-25T11:36:29;100926.28;;;20.39
49785;BMP280;35679;38.732;-121.358;2023-04-25T11:39:20;100932.06;;;20.36
49785;BMP280;35679;38.732;-121.358;2023-04-25T11:42:09;100931.50;;;20.34
49785;BMP280;35679;38.732;-121.358;2023-04-25T11:45:00;100924.47;;;20.33
49785;BMP280;35679;38.732;-121.358;2023-04-25T11:47:50;100931.72;;;20.33
49785;BMP280;35679;38.732;-121.358;2023-04-25T11:50:39;100922.25;;;20.30
49785;BMP280;35679;38.732;-121.358;2023-04-25T11:53:31;100918.38;;;20.26
49785;BMP280;35679;38.732;-121.358;2023-04-25T11:56:21;100918.38;;;20.26
49785;BMP280;35679;38.732;-121.358;2023-04-25T11:59:11;100931.78;;;20.26
49785;BMP280;35679;38.732;-121.358;2023-04-25T12:02:01;100923.97;;;20.25
49785;BMP280;35679;38.732;-121.358;2023-04-25T12:04:50;100916.16;;;20.23
49785;BMP280;35679;38.732;-121.358;2023-04-25T12:07:40;100932.66;;;20.20
49785;BMP280;35679;38.732;-121.358;2023-04-25T12:10:29;100933.50;;;20.21
49785;BMP280;35679;38.732;-121.358;2023-04-25T12:13:24;100925.91;;;20.18
49785;BMP280;35679;38.732;-121.358;2023-04-25T12:16:14;100913.75;;;20.15
49785;BMP280;35679;38.732;-121.358;2023-04-25T12:19:03;100921.81;;;20.15
49785;BMP280;35679;38.732;-121.358;2023-04-25T12:21:53;100919.97;;;20.16
49785;BMP280;35679;38.732;-121.358;2023-04-25T12:24:46;100907.00;;;20.13
49785;BMP280;35679;38.732;-121.358;2023-04-25T12:27:40;100911.56;;;20.12
49785;BMP280;35679;38.732;-121.358;2023-04-25T12:30:55;100910.13;;;20.10
49785;BMP280;35679;38.732;-121.358;2023-04-25T12:33:45;100913.84;;;20.09
49785;BMP280;35679;38.732;-121.358;2023-04-25T12:36:36;100921.28;;;20.07
49785;BMP280;35679;38.732;-121.358;2023-04-25T12:39:25;100914.75;;;20.03
49785;BMP280;35679;38.732;-121.358;2023-04-25T12:42:15;100920.31;;;20.01
49785;BMP280;35679;38.732;-121.358;2023-04-25T12:45:04;100917.03;;;19.99
49785;BMP280;35679;38.732;-121.358;2023-04-25T12:47:54;100909.47;;;19.96
49785;BMP280;35679;38.732;-121.358;2023-04-25T12:50:44;100918.53;;;19.95
49785;BMP280;35679;38.732;-121.358;2023-04-25T12:53:33;100920.63;;;19.93
49785;BMP280;35679;38.732;-121.358;2023-04-25T12:56:26;100907.63;;;19.90
49785;BMP280;35679;38.732;-121.358;2023-04-25T12:59:16;100908.69;;;19.89
49785;BMP280;35679;38.732;-121.358;2023-04-25T13:02:05;100907.06;;;19.88
49785;BMP280;35679;38.732;-121.358;2023-04-25T13:04:54;100918.81;;;19.87
49785;BMP280;35679;38.732;-121.358;2023-04-25T13:07:44;100911.59;;;19.88
49785;BMP280;35679;38.732;-121.358;2023-04-25T13:10:33;100911.81;;;19.86
49785;BMP280;35679;38.732;-121.358;2023-04-25T13:13:24;100912.84;;;19.85
49785;BMP280;35679;38.732;-121.358;2023-04-25T13:16:16;100917.78;;;19.88
49785;BMP280;35679;38.732;-121.358;2023-04-25T13:19:05;100911.44;;;19.83
49785;BMP280;35679;38.732;-121.358;2023-04-25T13:21:56;100920.28;;;19.83
49785;BMP280;35679;38.732;-121.358;2023-04-25T13:24:46;100925.63;;;19.83
49785;BMP280;35679;38.732;-121.358;2023-04-25T13:27:36;100926.88;;;19.81
49785;BMP280;35679;38.732;-121.358;2023-04-25T13:30:27;100927.94;;;19.80
49785;BMP280;35679;38.732;-121.358;2023-04-25T13:33:16;100921.97;;;19.78
49785;BMP280;35679;38.732;-121.358;2023-04-25T13:36:05;100923.25;;;19.75
49785;BMP280;35679;38.732;-121.358;2023-04-25T13:38:55;100927.81;;;19.75
49785;BMP280;35679;38.732;-121.358;2023-04-25T13:41:44;100928.00;;;19.73
49785;BMP280;35679;38.732;-121.358;2023-04-25T13:44:33;100929.25;;;19.71
49785;BMP280;35679;38.732;-121.358;2023-04-25T13:47:23;100929.47;;;19.70
49785;BMP280;35679;38.732;-121.358;2023-04-25T13:50:12;100924.59;;;19.67
49785;BMP280;35679;38.732;-121.358;2023-04-25T13:53:02;100932.00;;;19.65
49785;BMP280;35679;38.732;-121.358;2023-04-25T13:55:51;100939.41;;;19.63
49785;BMP280;35679;38.732;-121.358;2023-04-25T13:58:41;100934.06;;;19.63
49785;BMP280;35679;38.732;-121.358;2023-04-25T14:01:30;100935.31;;;19.60
49785;BMP280;35679;38.732;-121.358;2023-04-25T14:04:22;100944.44;;;19.59
49785;BMP280;35679;38.732;-121.358;2023-04-25T14:07:12;100950.81;;;19.58
49785;BMP280;35679;38.732;-121.358;2023-04-25T14:10:01;100951.03;;;19.57
49785;BMP280;35679;38.732;-121.358;2023-04-25T14:12:51;100951.38;;;19.60
49785;BMP280;35679;38.732;-121.358;2023-04-25T14:15:40;100954.53;;;19.57
49785;BMP280;35679;38.732;-121.358;2023-04-25T14:18:29;100960.09;;;19.56
49785;BMP280;35679;38.732;-121.358;2023-04-25T14:21:19;100961.13;;;19.55
49785;BMP280;35679;38.732;-121.358;2023-04-25T14:24:10;100960.09;;;19.56
49785;BMP280;35679;38.732;-121.358;2023-04-25T14:27:02;100960.97;;;19.50
49785;BMP280;35679;38.732;-121.358;2023-04-25T14:29:54;100963.88;;;19.48
49785;BMP280;35679;38.732;-121.358;2023-04-25T14:32:43;100972.47;;;19.50
49785;BMP280;35679;38.732;-121.358;2023-04-25T14:35:33;100967.56;;;19.47
49785;BMP280;35679;38.732;-121.358;2023-04-25T14:38:23;100973.97;;;19.46
49785;BMP280;35679;38.732;-121.358;2023-04-25T14:41:14;100978.28;;;19.47
49785;BMP280;35679;38.732;-121.358;2023-04-25T14:44:03;100973.16;;;19.46
49785;BMP280;35679;38.732;-121.358;2023-04-25T14:46:52;100972.13;;;19.47
49785;BMP280;35679;38.732;-121.358;2023-04-25T14:49:42;100976.41;;;19.48
49785;BMP280;35679;38.732;-121.358;2023-04-25T14:52:31;100974.19;;;19.45
49785;BMP280;35679;38.732;-121.358;2023-04-25T14:55:20;100970.47;;;19.46
49785;BMP280;35679;38.732;-121.358;2023-04-25T14:58:10;100969.88;;;19.44
49785;BMP280;35679;38.732;-121.358;2023-04-25T15:01:00;100968.84;;;19.45
49785;BMP280;35679;38.732;-121.358;2023-04-25T15:03:50;100971.28;;;19.46
49785;BMP280;35679;38.732;-121.358;2023-04-25T15:06:40;100976.06;;;19.44
49785;BMP280;35679;38.732;-121.358;2023-04-25T15:09:32;100976.84;;;19.45
49785;BMP280;35679;38.732;-121.358;2023-04-25T15:12:22;100978.94;;;19.43
49785;BMP280;35679;38.732;-121.358;2023-04-25T15:15:11;100975.66;;;19.41
49785;BMP280;35679;38.732;-121.358;2023-04-25T15:18:13;100973.56;;;19.43
49785;BMP280;35679;38.732;-121.358;2023-04-25T15:21:02;100968.88;;;19.38
49785;BMP280;35679;38.732;-121.358;2023-04-25T15:23:52;100965.16;;;19.39
49785;BMP280;35679;38.732;-121.358;2023-04-25T15:26:42;100965.38;;;19.38
49785;BMP280;35679;38.732;-121.358;2023-04-25T15:29:31;100969.09;;;19.37
49785;BMP280;35679;38.732;-121.358;2023-04-25T15:32:20;100966.59;;;19.42
49785;BMP280;35679;38.732;-121.358;2023-04-25T15:35:11;100964.75;;;19.42
49785;BMP280;35679;38.732;-121.358;2023-04-25T15:38:01;100957.13;;;19.39
49785;BMP280;35679;38.732;-121.358;2023-04-25T15:40:51;100962.06;;;19.42